Time;durP1;ratioP1;P1;durP2;ratioP2;P2;SDS_P1;SDS_P2;PMS_P1;PMS_P2;Temp;Humidity;BMP_temperature;BMP_pressure;BME280_temperature;BME280_humidity;BME280_pressure;Samples;Min_cycle;Max_cycle;Signal;HPM_P1;HPM_P2
2024/03/08 00:02:23;;;;;;;;;;;;;;;;;;5032564;28;3431;-66
2024/03/08 00:04:48;;;;;;;;;;;;;;;;;;5032015;28;5091;-67
2024/03/08 00:07:14;;;;;;;;;;;;;;;;;;5038735;28;5102;-67
2024/03/08 00:09:39;;;;;;;;;;;;;;;;;;5024357;28;4695;-67
2024/03/08 00:12:06;;;;;;;;;;;;;;;;;;5016903;28;5168;-67
2024/03/08 00:14:31;;;;;;;;;;;;;;;;;;5036072;28;3364;-67
2024/03/08 00:16:56;;;;;;;;;;;;;;;;;;5040754;28;4975;-67
2024/03/08 00:19:22;;;;;;;;;;;;;;;;;;5033554;28;5141;-67
2024/03/08 00:21:47;;;;;;;;;;;;;;;;;;5033623;28;4532;-67
2024/03/08 00:24:12;;;;;;;;;;;;;;;;;;5035498;28;5110;-66
2024/03/08 00:26:38;;;;;;;;;;;;;;;;;;5039852;28;1231;-66
2024/03/08 00:29:03;;;;;;;;;;;;;;;;;;5034691;28;4545;-66
2024/03/08 00:31:30;;;;;;;;;;;;;;;;;;5042275;28;4865;-67
2024/03/08 00:33:56;;;;;;;;;;;;;;;;;;5036347;28;5078;-67
2024/03/08 00:36:22;;;;;;;;;;;;;;;;;;5034910;28;5091;-67
2024/03/08 00:38:47;;;;;;;;;;;;;;;;;;5034394;28;3405;-66
2024/03/08 00:41:13;;;;;;;;;;;;;;;;;;5035107;28;4856;-67
2024/03/08 00:43:38;;;;;;;;;;;;;;;;;;5030910;28;5139;-66
2024/03/08 00:46:03;;;;;;;;;;;;;;;;;;5030057;28;5131;-66
2024/03/08 00:48:29;;;;;;;;;;;;;;;;;;5047110;28;4524;-66
2024/03/08 00:50:54;;;;;;;;;;;;;;;;;;5028375;28;3389;-67
2024/03/08 00:53:19;;;;;;;;;;;;;;;;;;5032493;28;4920;-66
2024/03/08 00:55:48;;;;;;;;;;;;;;;;;;5039345;28;4498;-66
2024/03/08 00:58:14;;;;;;;;;;;;;;;;;;5031058;28;5164;-66
2024/03/08 01:00:39;;;;;;;;;;;;;;;;;;5028617;28;4707;-66
2024/03/08 01:03:05;;;;;;;;;;;;;;;;;;5034572;28;4544;-66
2024/03/08 01:05:30;;;;;;;;;;;;;;;;;;5026988;28;3723;-66
2024/03/08 01:07:56;;;;;;;;;;;;;;;;;;5024860;28;5160;-67
2024/03/08 01:10:21;;;;;;;;;;;;;;;;;;5031217;28;4629;-67
2024/03/08 01:12:46;;;;;;;;;;;;;;;;;;5037231;28;5072;-67
2024/03/08 01:15:12;;;;;;;;;;;;;;;;;;5026664;28;5213;-67
2024/03/08 01:17:37;;;;;;;;;;;;;;;;;;5033204;28;3361;-66
2024/03/08 01:20:03;;;;;;;;;;;;;;;;;;5028984;28;4701;-67
2024/03/08 01:22:29;;;;;;;;;;;;;;;;;;5025002;28;5264;-66
2024/03/08 01:24:57;;;;;;;;;;;;;;;;;;5036174;28;4582;-67
2024/03/08 01:27:24;;;;;;;;;;;;;;;;;;5041140;28;4876;-66
2024/03/08 01:29:50;;;;;;;;;;;;;;;;;;5035100;28;3348;-67
2024/03/08 01:32:15;;;;;;;;;;;;;;;;;;5033985;28;5004;-67
2024/03/08 01:34:41;;;;;;;;;;;;;;;;;;5028479;28;4465;-67
2024/03/08 01:37:06;;;;;;;;;;;;;;;;;;5029255;28;5206;-67
2024/03/08 01:39:32;;;;;;;;;;;;;;;;;;5041296;28;5143;-67
2024/03/08 01:41:57;;;;;;;;;;;;;;;;;;5033493;28;5477;-67
2024/03/08 01:44:23;;;;;;;;;;;;;;;;;;5036705;28;3313;-67
2024/03/08 01:46:48;;;;;;;;;;;;;;;;;;5030909;28;5139;-67
2024/03/08 01:49:14;;;;;;;;;;;;;;;;;;5020567;28;4936;-66
2024/03/08 01:51:40;;;;;;;;;;;;;;;;;;5032300;28;4545;-67
2024/03/08 01:54:05;;;;;;;;;;;;;;;;;;5023250;28;4973;-67
2024/03/08 01:56:31;;;;;;;;;;;;;;;;;;5025445;28;3486;-67
2024/03/08 01:58:57;;;;;;;;;;;;;;;;;;5015461;28;5494;-66
2024/03/08 02:01:22;;;;;;;;;;;;;;;;;;5034228;28;5273;-66
2024/03/08 02:03:48;;;;;;;;;;;;;;;;;;5031397;28;4853;-66
2024/03/08 02:06:16;;;;;;;;;;;;;;;;;;5016848;28;4700;-67
2024/03/08 02:08:45;;;;;;;;;;;;;;;;;;5070464;28;3837;-67
2024/03/08 02:11:11;;;;;;;;;;;;;;;;;;5053210;28;4465;-67
2024/03/08 02:13:36;;;;;;;;;;;;;;;;;;5053797;28;4601;-67
2024/03/08 02:16:02;;;;;;;;;;;;;;;;;;5052631;28;4535;-67
2024/03/08 02:18:28;;;;;;;;;;;;;;;;;;5047272;28;5026;-67
2024/03/08 02:20:54;;;;;;;;;;;;;;;;;;5054922;28;3300;-67
2024/03/08 02:23:19;;;;;;;;;;;;;;;;;;5057129;28;4973;-67
2024/03/08 02:25:45;;;;;;;;;;;;;;;;;;5047145;28;4678;-67
2024/03/08 02:28:11;;;;;;;;;;;;;;;;;;5055893;28;5074;-67
2024/03/08 02:30:36;;;;;;;;;;;;;;;;;;5043864;28;5259;-67
2024/03/08 02:33:01;;;;;;;;;;;;;;;;;;5049291;28;4511;-66
2024/03/08 02:35:27;;;;;;;;;;;;;;;;;;5047759;28;3789;-66
2024/03/08 02:37:52;;;;;;;;;;;;;;;;;;5045295;28;5170;-67
2024/03/08 02:40:18;;;;;;;;;;;;;;;;;;5051156;28;5347;-67
2024/03/08 02:42:43;;;;;;;;;;;;;;;;;;5045239;28;4691;-67
2024/03/08 02:45:10;;;;;;;;;;;;;;;;;;5047110;28;4519;-67
2024/03/08 02:47:35;;;;;;;;;;;;;;;;;;5045120;28;3496;-66
2024/03/08 02:50:01;;;;;;;;;;;;;;;;;;5049254;28;4893;-66
2024/03/08 02:52:26;;;;;;;;;;;;;;;;;;5044939;28;5230;-67
2024/03/08 02:54:52;;;;;;;;;;;;;;;;;;5043716;28;4540;-67
2024/03/08 02:57:18;;;;;;;;;;;;;;;;;;5056387;28;5263;-67
2024/03/08 02:59:43;;;;;;;;;;;;;;;;;;5055080;28;3279;-66
2024/03/08 03:02:10;;;;;;;;;;;;;;;;;;5046633;28;4674;-67
2024/03/08 03:04:35;;;;;;;;;;;;;;;;;;5053522;28;4985;-67
2024/03/08 03:07:01;;;;;;;;;;;;;;;;;;5042555;28;5095;-67
2024/03/08 03:09:27;;;;;;;;;;;;;;;;;;5035801;28;4727;-66
2024/03/08 03:11:54;;;;;;;;;;;;;;;;;;5038354;28;2168;-67
2024/03/08 03:14:19;;;;;;;;;;;;;;;;;;5032230;28;4787;-66
2024/03/08 03:16:45;;;;;;;;;;;;;;;;;;5027891;28;5082;-66
2024/03/08 03:19:11;;;;;;;;;;;;;;;;;;5035382;28;4947;-67
2024/03/08 03:21:38;;;;;;;;;;;;;;;;;;5037641;28;4977;-66
2024/03/08 03:24:04;;;;;;;;;;;;;;;;;;5045906;28;5038;-67
2024/03/08 03:26:31;;;;;;;;;;;;;;;;;;5038189;28;1132;-67
2024/03/08 03:28:57;;;;;;;;;;;;;;;;;;5037090;28;4632;-66
2024/03/08 03:31:23;;;;;;;;;;;;;;;;;;5037243;28;5002;-66
2024/03/08 03:33:51;;;;;;;;;;;;;;;;;;5041301;28;4932;-66
2024/03/08 03:36:16;;;;;;;;;;;;;;;;;;5041368;28;5102;-67
2024/03/08 03:38:43;;;;;;;;;;;;;;;;;;5042568;28;1082;-67
2024/03/08 03:41:10;;;;;;;;;;;;;;;;;;5036381;28;4432;-66
2024/03/08 03:43:37;;;;;;;;;;;;;;;;;;5042070;28;5053;-67
2024/03/08 03:46:05;;;;;;;;;;;;;;;;;;5031357;28;5192;-67
2024/03/08 03:48:32;;;;;;;;;;;;;;;;;;5033795;28;4545;-66
2024/03/08 03:50:57;;;;;;;;;;;;;;;;;;5041765;28;5101;-65
2024/03/08 03:53:22;;;;;;;;;;;;;;;;;;5028104;28;3446;-67
2024/03/08 03:55:48;;;;;;;;;;;;;;;;;;5037167;28;4817;-66
2024/03/08 03:58:14;;;;;;;;;;;;;;;;;;5034103;28;5053;-66
2024/03/08 04:00:39;;;;;;;;;;;;;;;;;;5016104;28;5137;-66
2024/03/08 04:03:04;;;;;;;;;;;;;;;;;;5035599;28;5117;-66
2024/03/08 04:05:30;;;;;;;;;;;;;;;;;;5043168;28;1085;-66
2024/03/08 04:07:56;;;;;;;;;;;;;;;;;;5012617;28;4563;-67
2024/03/08 04:10:22;;;;;;;;;;;;;;;;;;5030380;28;5023;-67
2024/03/08 04:12:47;;;;;;;;;;;;;;;;;;5032153;28;4549;-67
2024/03/08 04:15:12;;;;;;;;;;;;;;;;;;5020569;28;5044;-67
2024/03/08 04:17:38;;;;;;;;;;;;;;;;;;5032363;28;3350;-67
2024/03/08 04:20:09;;;;;;;;;;;;;;;;;;5028987;28;4443;-66
2024/03/08 04:22:35;;;;;;;;;;;;;;;;;;5025214;28;4725;-66
2024/03/08 04:25:02;;;;;;;;;;;;;;;;;;5032933;28;4518;-67
2024/03/08 04:27:27;;;;;;;;;;;;;;;;;;5020346;28;4674;-66
2024/03/08 04:29:52;;;;;;;;;;;;;;;;;;5039447;28;3460;-66
2024/03/08 04:32:18;;;;;;;;;;;;;;;;;;5035834;28;5225;-66
2024/03/08 04:34:44;;;;;;;;;;;;;;;;;;5015415;28;5079;-66
2024/03/08 04:37:13;;;;;;;;;;;;;;;;;;5036968;28;5058;-67
2024/03/08 04:39:38;;;;;;;;;;;;;;;;;;5030133;28;4669;-66
2024/03/08 04:42:04;;;;;;;;;;;;;;;;;;5032856;28;5199;-66
2024/03/08 04:44:30;;;;;;;;;;;;;;;;;;5017598;28;3657;-67
2024/03/08 04:46:55;;;;;;;;;;;;;;;;;;5015381;28;4931;-67
2024/03/08 04:49:22;;;;;;;;;;;;;;;;;;5025512;28;4736;-67
2024/03/08 04:51:48;;;;;;;;;;;;;;;;;;5024085;28;5068;-67
2024/03/08 04:54:13;;;;;;;;;;;;;;;;;;5016782;28;4782;-67
2024/03/08 04:56:38;;;;;;;;;;;;;;;;;;5027898;28;3591;-67
2024/03/08 04:59:08;;;;;;;;;;;;;;;;;;5029423;28;4448;-67
2024/03/08 05:01:33;;;;;;;;;;;;;;;;;;5022189;28;4813;-67
2024/03/08 05:03:59;;;;;;;;;;;;;;;;;;5026806;28;5140;-67
2024/03/08 05:06:24;;;;;;;;;;;;;;;;;;5024428;28;5023;-67
2024/03/08 05:08:49;;;;;;;;;;;;;;;;;;5044607;28;3402;-66
2024/03/08 05:11:15;;;;;;;;;;;;;;;;;;5038115;28;4701;-66
2024/03/08 05:13:40;;;;;;;;;;;;;;;;;;5056051;28;4987;-66
2024/03/08 05:16:07;;;;;;;;;;;;;;;;;;5041337;28;4507;-66
2024/03/08 05:18:33;;;;;;;;;;;;;;;;;;5033283;28;4515;-66
2024/03/08 05:20:58;;;;;;;;;;;;;;;;;;5042952;28;5151;-66
2024/03/08 05:23:24;;;;;;;;;;;;;;;;;;5045040;28;3383;-67
2024/03/08 05:25:50;;;;;;;;;;;;;;;;;;5037291;28;5190;-66
2024/03/08 05:28:15;;;;;;;;;;;;;;;;;;5042518;28;4614;-67
2024/03/08 05:30:41;;;;;;;;;;;;;;;;;;5040903;28;4992;-68
2024/03/08 05:33:09;;;;;;;;;;;;;;;;;;5040511;28;4939;-67
2024/03/08 05:35:36;;;;;;;;;;;;;;;;;;5043607;28;3390;-67
2024/03/08 05:38:01;;;;;;;;;;;;;;;;;;5042552;28;4941;-67
2024/03/08 05:40:27;;;;;;;;;;;;;;;;;;5028886;28;5107;-66
2024/03/08 05:42:52;;;;;;;;;;;;;;;;;;5047993;28;5098;-67
2024/03/08 05:45:18;;;;;;;;;;;;;;;;;;5050391;28;5249;-67
2024/03/08 05:47:43;;;;;;;;;;;;;;;;;;5050739;28;1334;-67
2024/03/08 05:50:10;;;;;;;;;;;;;;;;;;5049475;28;4417;-66
2024/03/08 05:52:37;;;;;;;;;;;;;;;;;;5046791;28;4791;-67
2024/03/08 05:55:03;;;;;;;;;;;;;;;;;;5047657;28;4738;-67
2024/03/08 05:57:28;;;;;;;;;;;;;;;;;;5049366;28;5035;-68
2024/03/08 05:59:53;;;;;;;;;;;;;;;;;;5049034;28;3212;-67
2024/03/08 06:02:19;;;;;;;;;;;;;;;;;;5049004;28;4929;-67
2024/03/08 06:04:46;;;;;;;;;;;;;;;;;;5046969;28;5109;-68
2024/03/08 06:07:12;;;;;;;;;;;;;;;;;;5018785;28;4768;-68
2024/03/08 06:09:37;;;;;;;;;;;;;;;;;;5030591;28;4458;-68
2024/03/08 06:12:04;;;;;;;;;;;;;;;;;;5028979;28;5117;-67
2024/03/08 06:14:30;;;;;;;;;;;;;;;;;;5030740;28;1128;-68
2024/03/08 06:16:55;;;;;;;;;;;;;;;;;;5029753;28;4959;-67
2024/03/08 06:19:20;;;;;;;;;;;;;;;;;;5031635;28;5204;-67
2024/03/08 06:21:46;;;;;;;;;;;;;;;;;;5040538;28;5077;-67
2024/03/08 06:24:12;;;;;;;;;;;;;;;;;;5040961;28;4801;-68
2024/03/08 06:26:37;;;;;;;;;;;;;;;;;;5021051;28;3138;-68
2024/03/08 06:29:06;;;;;;;;;;;;;;;;;;5039053;28;5070;-68
2024/03/08 06:31:32;;;;;;;;;;;;;;;;;;5039738;28;5150;-68
2024/03/08 06:33:57;;;;;;;;;;;;;;;;;;5036501;28;4695;-68
2024/03/08 06:36:23;;;;;;;;;;;;;;;;;;5029031;28;4996;-67
2024/03/08 06:38:51;;;;;;;;;;;;;;;;;;5040867;28;1085;-68
2024/03/08 06:41:16;;;;;;;;;;;;;;;;;;5021763;28;4479;-68
2024/03/08 06:43:42;;;;;;;;;;;;;;;;;;5035117;28;5194;-68
2024/03/08 06:46:08;;;;;;;;;;;;;;;;;;5031560;28;5055;-68
2024/03/08 06:48:33;;;;;;;;;;;;;;;;;;5037671;28;4472;-68
2024/03/08 06:50:58;;;;;;;;;;;;;;;;;;5038697;28;5062;-68
2024/03/08 06:53:24;;;;;;;;;;;;;;;;;;5042851;28;2165;-67
2024/03/08 06:55:50;;;;;;;;;;;;;;;;;;5031704;28;5175;-67
2024/03/08 06:58:16;;;;;;;;;;;;;;;;;;5031116;28;5345;-68
2024/03/08 07:00:42;;;;;;;;;;;;;;;;;;5032719;28;5111;-68
2024/03/08 07:03:08;;;;;;;;;;;;;;;;;;5015534;28;4965;-69
2024/03/08 07:05:33;;;;;;;;;;;;;;;;;;5039703;28;1259;-68
2024/03/08 07:07:58;;;;;;;;;;;;;;;;;;5035823;28;5042;-68
2024/03/08 07:10:28;;;;;;;;;;;;;;;;;;5026571;28;5277;-66
2024/03/08 07:12:54;;;;;;;;;;;;;;;;;;5026870;28;4589;-67
2024/03/08 07:15:19;;;;;;;;;;;;;;;;;;5029234;28;4730;-67
2024/03/08 07:17:48;;;;;;;;;;;;;;;;;;5028777;28;1430;-67
2024/03/08 07:20:15;;;;;;;;;;;;;;;;;;5032051;28;4976;-68
2024/03/08 07:22:40;;;;;;;;;;;;;;;;;;5030627;28;5018;-67
2024/03/08 07:27:40;;;;;;;;;;;;;;;;;;5027377;28;4970;-66
2024/03/08 07:30:06;;;;;;;;;;;;;;;;;;5027341;28;5065;-67
2024/03/08 07:32:31;;;;;;;;;;;;;;;;;;5027796;28;3255;-67
2024/03/08 07:34:57;;;;;;;;;;;;;;;;;;5029467;28;4661;-68
2024/03/08 07:37:23;;;;;;;;;;;;;;;;;;5028702;28;5120;-67
2024/03/08 07:39:48;;;;;;;;;;;;;;;;;;5028112;28;5042;-67
2024/03/08 07:42:14;;;;;;;;;;;;;;;;;;5042605;28;4513;-68
2024/03/08 07:44:39;;;;;;;;;;;;;;;;;;5026777;28;3331;-67
2024/03/08 07:47:07;;;;;;;;;;;;;;;;;;5025283;28;4913;-67
2024/03/08 07:49:32;;;;;;;;;;;;;;;;;;5025933;28;5027;-67
2024/03/08 07:51:58;;;;;;;;;;;;;;;;;;5024189;28;5196;-68
2024/03/08 07:54:23;;;;;;;;;;;;;;;;;;5028545;28;4642;-67
2024/03/08 07:56:48;;;;;;;;;;;;;;;;;;5026905;28;3248;-67
2024/03/08 07:59:14;;;;;;;;;;;;;;;;;;5027413;28;4943;-67
2024/03/08 08:01:40;;;;;;;;;;;;;;;;;;5006660;28;5150;-67
2024/03/08 08:04:05;;;;;;;;;;;;;;;;;;5028420;28;4926;-68
2024/03/08 08:06:34;;;;;;;;;;;;;;;;;;5030875;28;4906;-67
2024/03/08 08:09:00;;;;;;;;;;;;;;;;;;5056528;28;5147;-67
2024/03/08 08:11:28;;;;;;;;;;;;;;;;;;5048231;28;2258;-68
2024/03/08 08:13:54;;;;;;;;;;;;;;;;;;5061222;28;5050;-68
2024/03/08 08:16:20;;;;;;;;;;;;;;;;;;5061649;28;4901;-66
2024/03/08 08:18:46;;;;;;;;;;;;;;;;;;5059774;28;5320;-67
2024/03/08 08:21:11;;;;;;;;;;;;;;;;;;5051213;28;4617;-67
2024/03/08 08:23:36;;;;;;;;;;;;;;;;;;5041529;28;3963;-67
2024/03/08 08:26:04;;;;;;;;;;;;;;;;;;5052543;28;4496;-68
2024/03/08 08:28:30;;;;;;;;;;;;;;;;;;5049836;28;4700;-67
2024/03/08 08:30:56;;;;;;;;;;;;;;;;;;5059276;28;5128;-67
2024/03/08 08:33:21;;;;;;;;;;;;;;;;;;5057018;28;5025;-67
2024/03/08 08:35:47;;;;;;;;;;;;;;;;;;5053531;28;3349;-67
2024/03/08 08:38:13;;;;;;;;;;;;;;;;;;5053392;28;5139;-68
2024/03/08 08:40:38;;;;;;;;;;;;;;;;;;5072121;28;5061;-66
2024/03/08 08:43:07;;;;;;;;;;;;;;;;;;5057419;28;5104;-67
2024/03/08 08:45:33;;;;;;;;;;;;;;;;;;5078387;28;5388;-67
2024/03/08 08:47:59;;;;;;;;;;;;;;;;;;5034304;28;5164;-67
2024/03/08 08:50:25;;;;;;;;;;;;;;;;;;5057587;28;1057;-67
2024/03/08 08:52:50;;;;;;;;;;;;;;;;;;5059051;28;5083;-66
2024/03/08 08:55:20;;;;;;;;;;;;;;;;;;5053325;28;5419;-67
2024/03/08 08:57:46;;;;;;;;;;;;;;;;;;5060666;28;5136;-67
2024/03/08 09:00:14;;;;;;;;;;;;;;;;;;5055588;28;4567;-68
2024/03/08 09:02:40;;;;;;;;;;;;;;;;;;5045944;28;1223;-66
2024/03/08 09:05:07;;;;;;;;;;;;;;;;;;5048346;28;4978;-67
2024/03/08 09:07:33;;;;;;;;;;;;;;;;;;5066420;28;4888;-68
2024/03/08 09:09:59;;;;;;;;;;;;;;;;;;5044762;28;4613;-68
2024/03/08 09:12:25;;;;;;;;;;;;;;;;;;5051503;28;4982;-67
2024/03/08 09:14:50;;;;;;;;;;;;;;;;;;5051816;28;1283;-67
2024/03/08 09:17:20;;;;;;;;;;;;;;;;;;5050231;28;5043;-67
2024/03/08 09:19:48;;;;;;;;;;;;;;;;;;5048454;28;4931;-68
2024/03/08 09:22:14;;;;;;;;;;;;;;;;;;5066063;28;5231;-67
2024/03/08 09:24:39;;;;;;;;;;;;;;;;;;5049318;28;4952;-67
2024/03/08 09:27:05;;;;;;;;;;;;;;;;;;5050773;28;4636;-67
2024/03/08 09:29:30;;;;;;;;;;;;;;;;;;5050068;28;3356;-67
2024/03/08 09:31:55;;;;;;;;;;;;;;;;;;5049289;28;4482;-67
2024/03/08 09:34:21;;;;;;;;;;;;;;;;;;5050671;28;4502;-67
2024/03/08 09:36:46;;;;;;;;;;;;;;;;;;5051044;28;4926;-67
2024/03/08 09:39:16;;;;;;;;;;;;;;;;;;5048596;28;4630;-67
2024/03/08 09:41:43;;;;;;;;;;;;;;;;;;5027089;28;1922;-68
2024/03/08 09:44:08;;;;;;;;;;;;;;;;;;5032465;28;5408;-66
2024/03/08 09:46:34;;;;;;;;;;;;;;;;;;5065077;28;5065;-67
2024/03/08 09:49:01;;;;;;;;;;;;;;;;;;5047346;28;5280;-67
2024/03/08 09:51:27;;;;;;;;;;;;;;;;;;5065770;28;5072;-68
2024/03/08 09:53:53;;;;;;;;;;;;;;;;;;5048160;28;3517;-67
2024/03/08 09:56:19;;;;;;;;;;;;;;;;;;5048322;28;4932;-67
2024/03/08 09:59:08;;;;;;;;;;;;;;;;;;5065622;28;4808;-67
2024/03/08 10:01:33;;;;;;;;;;;;;;;;;;5048671;28;4907;-68
2024/03/08 10:03:58;;;;;;;;;;;;;;;;;;5063020;28;5090;-68
2024/03/08 10:06:24;;;;;;;;;;;;;;;;;;5049897;28;4633;-67
2024/03/08 10:08:51;;;;;;;;;;;;;;;;;;5033211;28;1156;-67
2024/03/08 10:11:17;;;;;;;;;;;;;;;;;;5056044;28;4829;-67
2024/03/08 10:13:42;;;;;;;;;;;;;;;;;;5051742;28;5080;-67
2024/03/08 10:16:08;;;;;;;;;;;;;;;;;;5052737;28;4958;-67
2024/03/08 10:18:33;;;;;;;;;;;;;;;;;;5065302;28;5063;-68
2024/03/08 10:21:03;;;;;;;;;;;;;;;;;;5048569;28;4607;-67
2024/03/08 10:23:29;;;;;;;;;;;;;;;;;;5055103;28;3272;-67
2024/03/08 10:25:58;;;;;;;;;;;;;;;;;;5029999;28;4859;-67
2024/03/08 10:28:24;;;;;;;;;;;;;;;;;;5072036;28;5044;-67
2024/03/08 10:30:50;;;;;;;;;;;;;;;;;;5058801;28;5113;-67
2024/03/08 10:33:15;;;;;;;;;;;;;;;;;;5040988;28;4514;-67
2024/03/08 10:35:41;;;;;;;;;;;;;;;;;;5063047;28;1200;-68
2024/03/08 10:38:08;;;;;;;;;;;;;;;;;;5052687;28;5322;-68
2024/03/08 10:40:33;;;;;;;;;;;;;;;;;;5061486;28;4896;-68
2024/03/08 10:42:59;;;;;;;;;;;;;;;;;;5068958;28;4541;-68
2024/03/08 10:45:31;;;;;;;;;;;;;;;;;;5056300;28;5026;-67
2024/03/08 10:48:17;;;;;;;;;;;;;;;;;;5047968;28;5068;-67
2024/03/08 10:50:45;;;;;;;;;;;;;;;;;;5081946;28;1088;-67
2024/03/08 10:53:11;;;;;;;;;;;;;;;;;;5059876;28;4473;-67
2024/03/08 10:55:36;;;;;;;;;;;;;;;;;;5069541;28;4582;-67
2024/03/08 10:58:02;;;;;;;;;;;;;;;;;;5054059;28;4886;-67
2024/03/08 11:00:27;;;;;;;;;;;;;;;;;;5051294;28;5054;-66
2024/03/08 11:02:56;;;;;;;;;;;;;;;;;;5057958;28;1148;-67
2024/03/08 11:05:35;;;;;;;;;;;;;;;;;;5043640;28;5172;-67
2024/03/08 11:08:00;;;;;;;;;;;;;;;;;;5052698;28;4721;-68
2024/03/08 11:10:26;;;;;;;;;;;;;;;;;;5028511;28;4494;-67
2024/03/08 11:12:51;;;;;;;;;;;;;;;;;;5051831;28;4933;-66
2024/03/08 11:15:20;;;;;;;;;;;;;;;;;;5056370;28;5188;-66
2024/03/08 11:17:46;;;;;;;;;;;;;;;;;;5053563;28;1997;-66
2024/03/08 11:20:20;;;;;;;;;;;;;;;;;;5037340;28;4440;-66
2024/03/08 11:23:01;;;;;;;;;;;;;;;;;;5067082;28;4680;-66
2024/03/08 11:25:32;;;;;;;;;;;;;;;;;;5054596;28;4923;-67
2024/03/08 11:28:17;;;;;;;;;;;;;;;;;;5044801;28;5062;-68
2024/03/08 11:31:01;;;;;;;;;;;;;;;;;;5059836;28;5123;-68
2024/03/08 11:33:27;;;;;;;;;;;;;;;;;;5060018;28;5028;-68
2024/03/08 11:35:52;;;;;;;;;;;;;;;;;;5053048;28;3345;-68
2024/03/08 11:38:19;;;;;;;;;;;;;;;;;;5049470;28;5367;-67
2024/03/08 11:40:46;;;;;;;;;;;;;;;;;;5046198;28;4995;-65
2024/03/08 11:43:11;;;;;;;;;;;;;;;;;;5058791;28;4959;-67
2024/03/08 11:45:36;;;;;;;;;;;;;;;;;;5060458;28;5061;-68
2024/03/08 11:48:05;;;;;;;;;;;;;;;;;;5048580;28;5082;-66
2024/03/08 11:50:31;;;;;;;;;;;;;;;;;;5059303;28;983;-67
2024/03/08 11:53:03;;;;;;;;;;;;;;;;;;5060354;28;5866;-66
2024/03/08 11:55:30;;;;;;;;;;;;;;;;;;5048292;28;4971;-68
2024/03/08 11:58:01;;;;;;;;;;;;;;;;;;5047450;28;4586;-68
2024/03/08 12:00:32;;;;;;;;;;;;;;;;;;5048882;28;4972;-67
2024/03/08 12:03:04;;;;;;;;;;;;;;;;;;5053444;28;5124;-67
2024/03/08 12:05:30;;;;;;;;;;;;;;;;;;5076762;28;1093;-67
2024/03/08 12:07:59;;;;;;;;;;;;;;;;;;5046855;28;5104;-66
2024/03/08 12:10:24;;;;;;;;;;;;;;;;;;5057252;28;4485;-67
2024/03/08 12:12:51;;;;;;;;;;;;;;;;;;5065349;28;4701;-66
2024/03/08 12:15:17;;;;;;;;;;;;;;;;;;5053956;28;5165;-67
2024/03/08 12:17:43;;;;;;;;;;;;;;;;;;5046991;28;2254;-68
2024/03/08 12:20:15;;;;;;;;;;;;;;;;;;5063482;28;4960;-67
2024/03/08 12:22:41;;;;;;;;;;;;;;;;;;5051474;28;5392;-67
2024/03/08 12:25:10;;;;;;;;;;;;;;;;;;5055805;28;4983;-66
2024/03/08 12:27:37;;;;;;;;;;;;;;;;;;5051667;28;4501;-67
2024/03/08 12:30:22;;;;;;;;;;;;;;;;;;5062275;28;4892;-67
2024/03/08 12:32:48;;;;;;;;;;;;;;;;;;5055451;28;3952;-67
2024/03/08 12:35:14;;;;;;;;;;;;;;;;;;5056329;28;4862;-68
2024/03/08 12:37:39;;;;;;;;;;;;;;;;;;5047137;28;5153;-67
2024/03/08 12:40:08;;;;;;;;;;;;;;;;;;5032824;28;5038;-68
2024/03/08 12:42:34;;;;;;;;;;;;;;;;;;5054375;28;5097;-68
2024/03/08 12:44:59;;;;;;;;;;;;;;;;;;5056162;28;4657;-67
2024/03/08 12:47:29;;;;;;;;;;;;;;;;;;5052045;28;1385;-67
2024/03/08 12:49:55;;;;;;;;;;;;;;;;;;5048450;28;5079;-67
2024/03/08 12:52:20;;;;;;;;;;;;;;;;;;5057523;28;4899;-67
2024/03/08 12:54:47;;;;;;;;;;;;;;;;;;5057155;28;5021;-67
2024/03/08 12:57:12;;;;;;;;;;;;;;;;;;5056546;28;5023;-66
2024/03/08 12:59:38;;;;;;;;;;;;;;;;;;5051490;28;1058;-68
2024/03/08 13:02:05;;;;;;;;;;;;;;;;;;5073885;28;5055;-66
2024/03/08 13:04:31;;;;;;;;;;;;;;;;;;5054312;28;5013;-66
2024/03/08 13:06:56;;;;;;;;;;;;;;;;;;5058241;28;4691;-66
2024/03/08 13:09:22;;;;;;;;;;;;;;;;;;5052248;28;5064;-65
2024/03/08 13:11:47;;;;;;;;;;;;;;;;;;5056143;28;2736;-66
2024/03/08 13:14:13;;;;;;;;;;;;;;;;;;5061579;28;4611;-66
2024/03/08 13:16:38;;;;;;;;;;;;;;;;;;5044479;28;5155;-67
2024/03/08 13:19:04;;;;;;;;;;;;;;;;;;5056093;28;5092;-67
2024/03/08 13:21:30;;;;;;;;;;;;;;;;;;5025943;28;4748;-67
2024/03/08 13:23:55;;;;;;;;;;;;;;;;;;5049804;28;1390;-67
2024/03/08 13:26:21;;;;;;;;;;;;;;;;;;5043617;28;4488;-67
2024/03/08 13:28:48;;;;;;;;;;;;;;;;;;5048666;28;4917;-67
2024/03/08 13:31:14;;;;;;;;;;;;;;;;;;5053597;28;4690;-67
2024/03/08 13:33:41;;;;;;;;;;;;;;;;;;5052074;28;5122;-66
2024/03/08 13:36:14;;;;;;;;;;;;;;;;;;5058587;28;4506;-66
2024/03/08 13:38:43;;;;;;;;;;;;;;;;;;5035568;28;1104;-66
2024/03/08 13:41:08;;;;;;;;;;;;;;;;;;5055597;28;5133;-68
2024/03/08 13:43:34;;;;;;;;;;;;;;;;;;5056214;28;5271;-68
2024/03/08 13:45:59;;;;;;;;;;;;;;;;;;5052522;28;4467;-67
2024/03/08 13:48:24;;;;;;;;;;;;;;;;;;5051382;28;5213;-67
2024/03/08 13:50:51;;;;;;;;;;;;;;;;;;5061588;28;1176;-67
2024/03/08 13:53:16;;;;;;;;;;;;;;;;;;5058587;28;4448;-67
2024/03/08 13:55:42;;;;;;;;;;;;;;;;;;5040679;28;4996;-67
2024/03/08 13:58:10;;;;;;;;;;;;;;;;;;5054178;28;4611;-66
2024/03/08 14:00:36;;;;;;;;;;;;;;;;;;5051715;28;5173;-67
2024/03/08 14:03:05;;;;;;;;;;;;;;;;;;5057787;28;5005;-67
2024/03/08 14:05:34;;;;;;;;;;;;;;;;;;5038846;28;3165;-67
2024/03/08 14:08:00;;;;;;;;;;;;;;;;;;5040343;28;5462;-67
2024/03/08 14:10:27;;;;;;;;;;;;;;;;;;5054719;28;4466;-67
2024/03/08 14:12:52;;;;;;;;;;;;;;;;;;5054335;28;4929;-67
2024/03/08 14:15:20;;;;;;;;;;;;;;;;;;5058707;28;5082;-67
2024/03/08 14:17:46;;;;;;;;;;;;;;;;;;5059795;28;1409;-66
2024/03/08 14:20:12;;;;;;;;;;;;;;;;;;5065706;28;4894;-67
2024/03/08 14:22:38;;;;;;;;;;;;;;;;;;5064488;28;5118;-67
2024/03/08 14:25:05;;;;;;;;;;;;;;;;;;5056522;28;4618;-67
2024/03/08 14:27:30;;;;;;;;;;;;;;;;;;5050321;28;5092;-66
2024/03/08 14:29:56;;;;;;;;;;;;;;;;;;5055407;28;4674;-67
2024/03/08 14:32:23;;;;;;;;;;;;;;;;;;5068350;28;3392;-68
2024/03/08 14:34:49;;;;;;;;;;;;;;;;;;5054379;28;4871;-68
2024/03/08 14:37:14;;;;;;;;;;;;;;;;;;5063679;28;5078;-68
2024/03/08 14:39:40;;;;;;;;;;;;;;;;;;5055507;28;5022;-67
2024/03/08 14:42:08;;;;;;;;;;;;;;;;;;5050363;28;4958;-67
2024/03/08 14:44:33;;;;;;;;;;;;;;;;;;5052342;28;982;-68
2024/03/08 14:46:59;;;;;;;;;;;;;;;;;;5061606;28;5031;-67
2024/03/08 14:49:27;;;;;;;;;;;;;;;;;;5062644;28;4731;-68
2024/03/08 14:51:53;;;;;;;;;;;;;;;;;;5065138;28;4722;-67
2024/03/08 14:54:22;;;;;;;;;;;;;;;;;;5049374;28;5435;-67
2024/03/08 14:56:48;;;;;;;;;;;;;;;;;;5048866;28;3246;-66
2024/03/08 14:59:13;;;;;;;;;;;;;;;;;;5054171;28;5028;-67
2024/03/08 15:01:38;;;;;;;;;;;;;;;;;;5054647;28;4451;-67
2024/03/08 15:04:08;;;;;;;;;;;;;;;;;;5053967;28;4489;-68
2024/03/08 15:06:37;;;;;;;;;;;;;;;;;;5054785;28;4527;-68
2024/03/08 15:09:12;;;;;;;;;;;;;;;;;;5048955;28;5121;-67
2024/03/08 15:11:40;;;;;;;;;;;;;;;;;;5042966;28;3456;-67
2024/03/08 15:14:10;;;;;;;;;;;;;;;;;;5049157;28;5025;-67
2024/03/08 15:16:36;;;;;;;;;;;;;;;;;;5049626;28;4510;-67
2024/03/08 15:19:01;;;;;;;;;;;;;;;;;;5048492;28;5170;-67
2024/03/08 15:21:27;;;;;;;;;;;;;;;;;;5048012;28;4702;-67
2024/03/08 15:23:54;;;;;;;;;;;;;;;;;;5045002;28;3292;-67
2024/03/08 15:26:19;;;;;;;;;;;;;;;;;;5047307;28;4853;-68
2024/03/08 15:28:46;;;;;;;;;;;;;;;;;;5046074;28;4669;-67
2024/03/08 15:31:12;;;;;;;;;;;;;;;;;;5048051;28;5178;-67
2024/03/08 15:33:43;;;;;;;;;;;;;;;;;;5046402;28;5168;-67
2024/03/08 15:36:09;;;;;;;;;;;;;;;;;;5061777;28;5003;-67
2024/03/08 15:38:35;;;;;;;;;;;;;;;;;;5048454;28;3297;-67
2024/03/08 15:41:00;;;;;;;;;;;;;;;;;;5044231;28;4440;-67
2024/03/08 15:43:26;;;;;;;;;;;;;;;;;;5047918;28;4954;-67
2024/03/08 15:45:51;;;;;;;;;;;;;;;;;;5029491;28;5057;-67
2024/03/08 15:48:17;;;;;;;;;;;;;;;;;;5045819;28;5241;-67
2024/03/08 15:50:42;;;;;;;;;;;;;;;;;;5045239;28;3316;-67
2024/03/08 15:53:08;;;;;;;;;;;;;;;;;;5044658;28;5648;-68
2024/03/08 15:55:35;;;;;;;;;;;;;;;;;;5046350;28;5284;-68
2024/03/08 15:58:00;;;;;;;;;;;;;;;;;;5046417;28;5114;-67
2024/03/08 16:00:45;;;;;;;;;;;;;;;;;;5028188;28;5152;-68
2024/03/08 16:03:14;;;;;;;;;;;;;;;;;;5045978;28;5186;-67
2024/03/08 16:05:46;;;;;;;;;;;;;;;;;;5045702;28;3471;-67
2024/03/08 16:08:18;;;;;;;;;;;;;;;;;;5024038;28;4976;-67
2024/03/08 16:10:45;;;;;;;;;;;;;;;;;;5023267;28;5419;-67
2024/03/08 16:13:11;;;;;;;;;;;;;;;;;;5027880;28;5080;-68
2024/03/08 16:15:38;;;;;;;;;;;;;;;;;;5022585;28;5018;-67
2024/03/08 16:18:05;;;;;;;;;;;;;;;;;;5018179;28;4515;-67
2024/03/08 16:20:31;;;;;;;;;;;;;;;;;;5026605;28;3199;-66
2024/03/08 16:22:57;;;;;;;;;;;;;;;;;;5021855;28;4714;-67
2024/03/08 16:25:22;;;;;;;;;;;;;;;;;;5027639;28;5101;-68
2024/03/08 16:27:47;;;;;;;;;;;;;;;;;;5027630;28;5082;-67
2024/03/08 16:30:15;;;;;;;;;;;;;;;;;;5025788;28;5166;-67
2024/03/08 16:32:42;;;;;;;;;;;;;;;;;;5028045;28;3239;-67
2024/03/08 16:35:10;;;;;;;;;;;;;;;;;;5025828;28;4987;-67
2024/03/08 16:37:36;;;;;;;;;;;;;;;;;;5026497;28;4703;-66
2024/03/08 16:40:01;;;;;;;;;;;;;;;;;;5027885;28;5008;-68
2024/03/08 16:42:27;;;;;;;;;;;;;;;;;;5026218;28;5094;-67
2024/03/08 16:44:52;;;;;;;;;;;;;;;;;;5028483;28;1110;-67
2024/03/08 16:47:17;;;;;;;;;;;;;;;;;;5026871;28;4628;-67
2024/03/08 16:49:43;;;;;;;;;;;;;;;;;;5015695;28;4635;-67
2024/03/08 16:52:08;;;;;;;;;;;;;;;;;;5026315;28;5748;-67
2024/03/08 16:54:33;;;;;;;;;;;;;;;;;;5027874;28;5318;-67
2024/03/08 16:56:59;;;;;;;;;;;;;;;;;;5027690;28;4894;-67
2024/03/08 16:59:25;;;;;;;;;;;;;;;;;;5010568;28;1004;-68
2024/03/08 17:01:51;;;;;;;;;;;;;;;;;;5026061;28;4853;-67